Time;durP1;ratioP1;P1;durP2;ratioP2;P2;SDS_P1;SDS_P2;PMS_P1;PMS_P2;Temp;Humidity;BMP_temperature;BMP_pressure;BME280_temperature;BME280_humidity;BME280_pressure;Samples;Min_cycle;Max_cycle;Signal;HPM_P1;HPM_P2
2021/12/31 00:00:54;;;;;;;;;;;;;;;11.75;80.07;101035.66;5033730;28;20023;-56
2021/12/31 00:03:21;;;;;;;;;;;;;;;11.70;79.95;101039.28;5044136;28;19925;-55
2021/12/31 00:05:48;;;;;;;;;;;;;;;11.66;79.83;101042.91;5038095;28;20023;-55
2021/12/31 00:08:15;;;;;;;;;;;;;;;11.65;79.65;101046.81;5033401;28;20004;-54
2021/12/31 00:10:41;;;;;;;;;;;;;;;11.64;79.64;101045.97;5032171;28;20011;-55
2021/12/31 00:13:08;;;;;;;;;;;;;;;11.61;79.27;101047.38;5033978;28;20019;-56
2021/12/31 00:15:35;;;;;;;;;;;;;;;11.59;79.15;101038.44;5033791;28;20427;-56
2021/12/31 00:18:01;;;;;;;;;;;;;;;11.57;79.02;101034.22;5033581;28;20007;-55
2021/12/31 00:20:29;;;;;;;;;;;;;;;11.50;78.71;101037.28;5048462;28;20020;-54
2021/12/31 00:25:29;;;;;;;;;;;;;;;11.37;78.42;101035.00;5033145;28;20023;-56
2021/12/31 00:27:55;;;;;;;;;;;;;;;11.34;78.44;101038.34;5033029;28;19980;-54
2021/12/31 00:30:22;;;;;;;;;;;;;;;11.33;78.59;101040.28;5033468;28;20555;-54
2021/12/31 00:32:49;;;;;;;;;;;;;;;11.34;78.48;101036.38;5037690;28;19951;-56
2021/12/31 00:35:16;;;;;;;;;;;;;;;11.35;78.36;101023.22;5041366;28;20016;-55
2021/12/31 00:37:43;;;;;;;;;;;;;;;11.35;78.25;101028.81;5048557;28;20357;-55
2021/12/31 00:40:11;;;;;;;;;;;;;;;11.36;78.15;101025.75;5033334;28;20344;-55
2021/12/31 00:42:38;;;;;;;;;;;;;;;11.30;77.92;101020.44;5032961;28;20522;-57
2021/12/31 00:45:06;;;;;;;;;;;;;;;11.22;77.82;101020.97;5033141;28;20011;-51
2021/12/31 00:47:33;;;;;;;;;;;;;;;11.10;77.61;101018.38;5037144;28;20015;-55
2021/12/31 00:49:59;;;;;;;;;;;;;;;10.97;77.60;101025.31;5044842;28;19927;-55
2021/12/31 00:52:26;;;;;;;;;;;;;;;10.86;77.87;101029.16;5033026;28;19987;-56
2021/12/31 00:54:53;;;;;;;;;;;;;;;10.75;78.05;101021.84;5032610;28;20012;-52
2021/12/31 00:57:19;;;;;;;;;;;;;;;10.66;78.15;101024.28;5033141;28;20248;-55
2021/12/31 00:59:46;;;;;;;;;;;;;;;10.57;78.43;101018.38;5032515;28;20016;-54
2021/12/31 01:02:13;;;;;;;;;;;;;;;10.54;78.47;101020.88;5046190;28;19964;-55
2021/12/31 01:04:40;;;;;;;;;;;;;;;10.52;78.20;101018.34;5042151;28;20011;-55
2021/12/31 01:07:07;;;;;;;;;;;;;;;10.51;78.25;101011.09;5032433;28;20027;-54
2021/12/31 01:09:35;;;;;;;;;;;;;;;10.51;78.37;101001.88;5032210;28;19976;-54
2021/12/31 01:12:02;;;;;;;;;;;;;;;10.50;78.44;100998.25;5032542;28;19928;-54
2021/12/31 01:14:42;;;;;;;;;;;;;;;10.48;78.35;101010.78;5032392;28;19961;-54
2021/12/31 01:17:13;;;;;;;;;;;;;;;10.48;78.05;101008.81;5032630;28;19964;-55
2021/12/31 01:19:50;;;;;;;;;;;;;;;10.47;78.06;101009.94;5032365;28;20024;-54
2021/12/31 01:22:22;;;;;;;;;;;;;;;10.49;78.01;101012.44;5033400;28;20339;-55
2021/12/31 01:24:49;;;;;;;;;;;;;;;10.50;78.10;101006.63;5032555;28;20334;-56
2021/12/31 01:27:16;;;;;;;;;;;;;;;10.48;78.02;101003.25;5032838;28;19975;-54
2021/12/31 01:29:43;;;;;;;;;;;;;;;10.46;78.00;101011.06;5034822;28;19924;-55
2021/12/31 01:32:10;;;;;;;;;;;;;;;10.44;78.00;101018.84;5052547;28;19994;-55
2021/12/31 01:34:37;;;;;;;;;;;;;;;10.40;78.16;101006.53;5031248;28;20012;-55
2021/12/31 01:37:04;;;;;;;;;;;;;;;10.39;78.18;101008.50;5032256;28;19967;-54
2021/12/31 01:39:30;;;;;;;;;;;;;;;10.39;77.88;101004.84;5036064;28;20011;-53
2021/12/31 01:41:58;;;;;;;;;;;;;;;10.40;77.93;101004.59;5036219;28;20016;-53
2021/12/31 01:44:36;;;;;;;;;;;;;;;10.41;78.03;101005.44;5036407;28;19952;-55
2021/12/31 01:47:06;;;;;;;;;;;;;;;10.41;77.92;101005.44;5036031;28;19964;-51
2021/12/31 01:49:36;;;;;;;;;;;;;;;10.41;77.74;101017.44;5036005;28;20460;-55
2021/12/31 01:52:03;;;;;;;;;;;;;;;10.37;77.98;101007.91;5036305;28;20012;-54
2021/12/31 01:54:30;;;;;;;;;;;;;;;10.35;77.81;101006.50;5053378;28;19920;-56
2021/12/31 01:57:00;;;;;;;;;;;;;;;10.30;77.83;101012.06;5036321;28;19956;-53
2021/12/31 01:59:28;;;;;;;;;;;;;;;10.30;77.96;101020.44;5036282;28;19963;-52
2021/12/31 02:01:55;;;;;;;;;;;;;;;10.28;77.78;101022.63;5036283;28;20345;-52
2021/12/31 02:04:23;;;;;;;;;;;;;;;10.27;77.78;101026.53;5036190;28;19921;-54
2021/12/31 02:06:51;;;;;;;;;;;;;;;10.27;77.74;101023.75;5035572;28;19921;-57
2021/12/31 02:09:17;;;;;;;;;;;;;;;10.24;77.78;101027.88;5035896;28;20115;-55
2021/12/31 02:11:44;;;;;;;;;;;;;;;10.24;77.61;101027.88;5070284;28;19924;-54
2021/12/31 02:14:11;;;;;;;;;;;;;;;10.21;77.79;101018.06;5040540;28;19928;-54
2021/12/31 02:16:38;;;;;;;;;;;;;;;10.18;77.51;101023.34;5035624;28;20024;-55
2021/12/31 02:19:11;;;;;;;;;;;;;;;10.16;77.53;101025.59;5035653;28;19921;-53
2021/12/31 02:21:41;;;;;;;;;;;;;;;10.13;77.59;101026.97;5035674;28;19925;-55
2021/12/31 02:24:08;;;;;;;;;;;;;;;10.13;77.71;101032.53;5035610;28;20451;-54
2021/12/31 02:26:34;;;;;;;;;;;;;;;10.13;77.53;101029.75;5035820;28;20352;-54
2021/12/31 02:29:01;;;;;;;;;;;;;;;10.12;77.40;101018.84;5036014;28;19927;-55
2021/12/31 02:31:28;;;;;;;;;;;;;;;10.09;77.53;101034.19;5035304;28;19924;-53
2021/12/31 02:33:55;;;;;;;;;;;;;;;10.05;77.60;101030.25;5035656;28;20004;-54
2021/12/31 02:36:22;;;;;;;;;;;;;;;10.04;77.63;101030.50;5035272;28;20024;-55
2021/12/31 02:38:50;;;;;;;;;;;;;;;9.99;77.94;101031.31;5035178;28;20012;-55
2021/12/31 02:41:16;;;;;;;;;;;;;;;9.97;78.10;101030.72;5035165;28;20028;-55
2021/12/31 02:43:43;;;;;;;;;;;;;;;9.97;78.11;101027.91;5034962;28;19964;-55
2021/12/31 02:46:10;;;;;;;;;;;;;;;9.96;77.87;101021.50;5035778;28;20341;-56
2021/12/31 02:48:37;;;;;;;;;;;;;;;9.94;78.05;101031.25;5035034;28;19920;-55
2021/12/31 02:51:04;;;;;;;;;;;;;;;9.94;78.07;101034.03;5035197;28;20021;-55
2021/12/31 02:53:35;;;;;;;;;;;;;;;9.95;77.99;101027.38;5034771;28;20371;-54
2021/12/31 02:56:06;;;;;;;;;;;;;;;9.95;78.13;101031.00;5035158;28;19921;-55
2021/12/31 02:58:34;;;;;;;;;;;;;;;9.98;77.80;101032.38;5042760;28;19933;-53
2021/12/31 03:01:01;;;;;;;;;;;;;;;9.99;77.73;101036.88;5045569;28;19968;-55
2021/12/31 03:03:28;;;;;;;;;;;;;;;9.99;77.76;101047.22;5035967;28;20024;-54
2021/12/31 03:05:55;;;;;;;;;;;;;;;9.96;77.92;101043.00;5054614;28;19946;-53
2021/12/31 03:08:25;;;;;;;;;;;;;;;9.94;77.97;101037.66;5053545;28;19925;-55
2021/12/31 03:10:52;;;;;;;;;;;;;;;9.88;77.82;101026.72;5054376;28;19968;-54
2021/12/31 03:13:19;;;;;;;;;;;;;;;9.86;78.03;101031.72;5054576;28;19920;-54
2021/12/31 03:15:46;;;;;;;;;;;;;;;9.83;77.90;101021.09;5051879;28;20027;-54
2021/12/31 03:18:13;;;;;;;;;;;;;;;9.80;77.99;101025.25;5034507;28;19921;-55
2021/12/31 03:20:57;;;;;;;;;;;;;;;9.78;78.19;101023.81;5034622;28;20011;-54
2021/12/31 03:23:29;;;;;;;;;;;;;;;9.78;78.06;101018.25;5034478;28;19974;-55
2021/12/31 03:25:56;;;;;;;;;;;;;;;9.78;77.95;101015.44;5034378;28;20104;-54
2021/12/31 03:28:23;;;;;;;;;;;;;;;9.79;77.83;101015.22;5053912;28;19999;-54
2021/12/31 03:30:50;;;;;;;;;;;;;;;9.81;77.82;101013.00;5054385;28;20287;-55
2021/12/31 03:33:18;;;;;;;;;;;;;;;9.83;78.02;101012.72;5041833;28;19924;-55
2021/12/31 03:35:45;;;;;;;;;;;;;;;9.83;77.69;101015.53;5049682;28;20019;-55
2021/12/31 03:38:12;;;;;;;;;;;;;;;9.82;77.60;101011.91;5052445;28;20036;-54
2021/12/31 03:40:39;;;;;;;;;;;;;;;9.84;77.67;101011.63;5054305;28;20350;-55
2021/12/31 03:43:07;;;;;;;;;;;;;;;9.84;77.63;101015.25;5034588;28;19971;-55
2021/12/31 03:45:35;;;;;;;;;;;;;;;9.83;77.88;101012.72;5033799;28;19971;-54
2021/12/31 03:48:02;;;;;;;;;;;;;;;9.81;77.63;101004.63;5033859;28;19920;-53
2021/12/31 03:50:29;;;;;;;;;;;;;;;9.82;77.76;101008.25;5033592;28;20015;-55
2021/12/31 03:52:56;;;;;;;;;;;;;;;9.80;77.68;101005.72;5034253;28;20016;-54
2021/12/31 03:55:23;;;;;;;;;;;;;;;9.76;77.91;101010.16;5034561;28;19921;-56
2021/12/31 03:57:49;;;;;;;;;;;;;;;9.73;78.06;101007.88;5034211;28;19933;-55
2021/12/31 04:00:16;;;;;;;;;;;;;;;9.69;77.93;101015.94;5033467;28;20007;-55
2021/12/31 04:02:43;;;;;;;;;;;;;;;9.65;78.24;101008.38;5034410;28;20024;-54
2021/12/31 04:05:10;;;;;;;;;;;;;;;9.61;78.38;101019.22;5053136;28;19928;-55
2021/12/31 04:07:37;;;;;;;;;;;;;;;9.60;78.31;101017.50;5038494;28;19927;-55
2021/12/31 04:10:04;;;;;;;;;;;;;;;9.57;78.37;101014.41;5048942;28;20008;-54
2021/12/31 04:12:31;;;;;;;;;;;;;;;9.54;78.67;101021.38;5033974;28;20009;-55
2021/12/31 04:14:58;;;;;;;;;;;;;;;9.52;78.67;101009.63;5033604;28;20346;-55
2021/12/31 04:17:24;;;;;;;;;;;;;;;9.52;78.70;101011.59;5033345;28;20016;-56
2021/12/31 04:19:55;;;;;;;;;;;;;;;9.52;78.45;101009.63;5033612;28;20324;-55
2021/12/31 04:22:24;;;;;;;;;;;;;;;9.52;78.53;101004.06;5033443;28;19968;-56
2021/12/31 04:24:52;;;;;;;;;;;;;;;9.55;78.48;101013.84;5037557;28;19920;-54
2021/12/31 04:27:22;;;;;;;;;;;;;;;9.54;78.61;101007.44;5053008;28;19924;-56
2021/12/31 04:29:52;;;;;;;;;;;;;;;9.53;78.72;101013.25;5035210;28;19933;-56
2021/12/31 04:32:22;;;;;;;;;;;;;;;9.49;78.61;101012.94;5033043;28;19929;-60
2021/12/31 04:34:49;;;;;;;;;;;;;;;9.44;78.86;101001.75;5033104;28;20016;-57
2021/12/31 04:37:16;;;;;;;;;;;;;;;9.41;78.96;101013.41;5033529;28;20339;-57
2021/12/31 04:39:43;;;;;;;;;;;;;;;9.37;79.04;101006.69;5032989;28;20019;-55
2021/12/31 04:42:10;;;;;;;;;;;;;;;9.35;79.05;101009.72;5033012;28;20020;-54
2021/12/31 04:44:37;;;;;;;;;;;;;;;9.34;79.17;101001.63;5033538;28;20020;-55
2021/12/31 04:47:04;;;;;;;;;;;;;;;9.34;79.06;101004.44;5032951;28;20019;-55
2021/12/31 04:49:31;;;;;;;;;;;;;;;9.36;79.07;101010.56;5033253;28;20370;-56
2021/12/31 04:51:57;;;;;;;;;;;;;;;9.35;79.04;101003.31;5032773;28;19921;-53
2021/12/31 04:54:24;;;;;;;;;;;;;;;9.36;79.15;101008.59;5032885;28;20016;-55
2021/12/31 04:56:54;;;;;;;;;;;;;;;9.36;79.00;101005.81;5033889;28;19951;-55
2021/12/31 04:59:20;;;;;;;;;;;;;;;9.40;78.96;101011.72;5052503;28;19971;-55
2021/12/31 05:01:53;;;;;;;;;;;;;;;9.43;78.76;101022.34;5052076;28;19940;-54
2021/12/31 05:04:20;;;;;;;;;;;;;;;9.45;78.65;101017.38;5052599;28;19925;-55
2021/12/31 05:06:49;;;;;;;;;;;;;;;9.51;78.41;101021.06;5051066;28;20007;-55
2021/12/31 05:09:16;;;;;;;;;;;;;;;9.54;78.40;101018.59;5052469;28;19924;-56
2021/12/31 05:11:43;;;;;;;;;;;;;;;9.58;78.34;101018.91;5052058;28;19921;-55
2021/12/31 05:14:10;;;;;;;;;;;;;;;9.60;78.05;101017.50;5063970;28;20023;-54
2021/12/31 05:16:37;;;;;;;;;;;;;;;9.64;77.86;101013.13;5032517;28;19921;-55
2021/12/31 05:19:04;;;;;;;;;;;;;;;9.66;77.79;101010.88;5033217;28;19927;-55
2021/12/31 05:21:31;;;;;;;;;;;;;;;9.69;77.73;101010.38;5032561;28;20012;-55
2021/12/31 05:23:59;;;;;;;;;;;;;;;9.74;77.43;101015.16;5032760;28;19960;-55
2021/12/31 05:26:26;;;;;;;;;;;;;;;9.77;77.19;101014.63;5032253;28;19953;-55
2021/12/31 05:28:53;;;;;;;;;;;;;;;9.76;77.42;101015.72;5032319;28;19964;-56
2021/12/31 05:31:21;;;;;;;;;;;;;;;9.76;77.36;101017.69;5032592;28;19967;-56
2021/12/31 05:33:48;;;;;;;;;;;;;;;9.75;77.28;101018.81;5032430;28;19927;-55
2021/12/31 05:36:15;;;;;;;;;;;;;;;9.73;77.15;101014.31;5041321;28;20433;-55
2021/12/31 05:38:42;;;;;;;;;;;;;;;9.73;77.10;101011.50;5032706;28;20012;-54
2021/12/31 05:41:10;;;;;;;;;;;;;;;9.72;77.10;101011.78;5032599;28;20024;-55
2021/12/31 05:43:36;;;;;;;;;;;;;;;9.71;77.27;101016.53;5032354;28;20021;-53
2021/12/31 05:46:03;;;;;;;;;;;;;;;9.69;77.11;101009.53;5032211;28;19920;-54
2021/12/31 05:48:30;;;;;;;;;;;;;;;9.71;77.32;100985.03;5032185;28;20015;-54
2021/12/31 05:50:57;;;;;;;;;;;;;;;9.71;77.07;100993.38;5032239;28;20019;-55
2021/12/31 05:53:25;;;;;;;;;;;;;;;9.69;77.09;100988.06;5032676;28;19943;-53
2021/12/31 05:55:51;;;;;;;;;;;;;;;9.61;77.15;100991.34;5032411;28;19964;-55
2021/12/31 05:58:18;;;;;;;;;;;;;;;9.58;77.37;100991.84;5032226;28;20043;-55
2021/12/31 06:00:45;;;;;;;;;;;;;;;9.56;77.68;100991.25;5032170;28;19956;-56
2021/12/31 06:03:12;;;;;;;;;;;;;;;9.56;77.56;101002.41;5032163;28;19921;-53
2021/12/31 06:05:39;;;;;;;;;;;;;;;9.55;77.59;100991.53;5034907;28;20023;-56
2021/12/31 06:08:06;;;;;;;;;;;;;;;9.51;77.76;100996.81;5052204;28;20331;-53
2021/12/31 06:10:32;;;;;;;;;;;;;;;9.48;77.64;100998.16;5042545;28;20027;-54
2021/12/31 06:13:00;;;;;;;;;;;;;;;9.47;77.98;100995.66;5033343;28;20358;-55
2021/12/31 06:15:28;;;;;;;;;;;;;;;9.47;77.87;100990.09;5041093;28;19975;-57
2021/12/31 06:17:55;;;;;;;;;;;;;;;9.45;77.80;100997.84;5051882;28;19925;-55
2021/12/31 06:20:21;;;;;;;;;;;;;;;9.44;78.01;100996.19;5049101;28;19933;-54
2021/12/31 06:22:48;;;;;;;;;;;;;;;9.43;78.12;101005.63;5032176;28;20015;-55
2021/12/31 06:25:15;;;;;;;;;;;;;;;9.40;77.98;101001.44;5034768;28;20015;-54
2021/12/31 06:27:41;;;;;;;;;;;;;;;9.41;78.17;101000.31;5036409;28;20019;-57
2021/12/31 06:30:09;;;;;;;;;;;;;;;9.42;77.90;100996.41;5035483;28;20292;-54
2021/12/31 06:32:37;;;;;;;;;;;;;;;9.44;78.04;101001.75;5035840;28;20348;-55
2021/12/31 06:35:04;;;;;;;;;;;;;;;9.43;77.92;100986.09;5035330;28;20399;-54
2021/12/31 06:37:31;;;;;;;;;;;;;;;9.42;78.06;100992.78;5038565;28;19960;-56
2021/12/31 06:40:01;;;;;;;;;;;;;;;9.43;77.89;100989.72;5035200;28;20020;-55
2021/12/31 06:42:28;;;;;;;;;;;;;;;9.44;77.83;100997.00;5035209;28;20023;-55
2021/12/31 06:44:54;;;;;;;;;;;;;;;9.45;77.64;100997.84;5037020;28;20019;-54
2021/12/31 06:47:21;;;;;;;;;;;;;;;9.47;77.65;101004.84;5035531;28;19921;-55
2021/12/31 06:49:48;;;;;;;;;;;;;;;9.48;77.67;101002.91;5053777;28;19952;-56
2021/12/31 06:52:15;;;;;;;;;;;;;;;9.48;77.45;100991.75;5055192;28;20333;-54
2021/12/31 06:54:41;;;;;;;;;;;;;;;9.47;77.45;100998.44;5054982;28;19967;-55
2021/12/31 06:57:08;;;;;;;;;;;;;;;9.46;77.61;100989.22;5053899;28;20023;-55
2021/12/31 06:59:35;;;;;;;;;;;;;;;9.47;77.60;100992.88;5035005;28;20301;-53
2021/12/31 07:02:01;;;;;;;;;;;;;;;9.45;77.68;100995.91;5035506;28;19967;-55
2021/12/31 07:04:28;;;;;;;;;;;;;;;9.45;77.64;100989.50;5034748;28;19968;-54
2021/12/31 07:07:19;;;;;;;;;;;;;;;9.45;77.58;100993.13;5034743;28;19940;-55
2021/12/31 07:09:46;;;;;;;;;;;;;;;9.45;77.45;100993.13;5034968;28;19964;-55
2021/12/31 07:12:12;;;;;;;;;;;;;;;9.46;77.26;100999.53;5040936;28;20011;-53
2021/12/31 07:14:39;;;;;;;;;;;;;;;9.48;77.37;100997.31;5055162;28;20361;-55
2021/12/31 07:17:06;;;;;;;;;;;;;;;9.50;77.26;101000.69;5054411;28;20016;-51
2021/12/31 07:19:32;;;;;;;;;;;;;;;9.52;77.39;101009.63;5053200;28;20019;-55
2021/12/31 07:22:00;;;;;;;;;;;;;;;9.55;77.10;101009.09;5053081;28;20019;-55
2021/12/31 07:24:27;;;;;;;;;;;;;;;9.55;76.97;101008.28;5054580;28;20023;-53
2021/12/31 07:26:54;;;;;;;;;;;;;;;9.58;76.87;101007.75;5042681;28;19975;-55
2021/12/31 07:29:21;;;;;;;;;;;;;;;9.56;76.79;101002.41;5034265;28;20012;-56
2021/12/31 07:31:48;;;;;;;;;;;;;;;9.53;76.77;101000.16;5034262;28;19951;-55
2021/12/31 07:34:15;;;;;;;;;;;;;;;9.50;76.97;101000.69;5034526;28;20355;-55
2021/12/31 07:36:41;;;;;;;;;;;;;;;9.50;77.06;101003.47;5040493;28;20007;-56
2021/12/31 07:39:10;;;;;;;;;;;;;;;9.49;76.94;101007.38;5054241;28;19943;-55
2021/12/31 07:41:36;;;;;;;;;;;;;;;9.49;77.14;101015.72;5054486;28;20331;-56
2021/12/31 07:44:03;;;;;;;;;;;;;;;9.47;77.04;101021.59;5046567;28;20032;-56
2021/12/31 07:46:30;;;;;;;;;;;;;;;9.48;77.27;101026.03;5034271;28;20388;-55
2021/12/31 07:48:56;;;;;;;;;;;;;;;9.49;76.89;101026.88;5033910;28;20368;-55
2021/12/31 07:51:23;;;;;;;;;;;;;;;9.49;76.88;101027.72;5033938;28;20377;-56
2021/12/31 07:53:50;;;;;;;;;;;;;;;9.50;76.95;101034.13;5034389;28;19956;-54
2021/12/31 07:56:19;;;;;;;;;;;;;;;9.51;77.11;101033.06;5034174;28;20420;-56
2021/12/31 07:58:48;;;;;;;;;;;;;;;9.53;76.74;101038.34;5033024;28;19996;-54
2021/12/31 08:01:16;;;;;;;;;;;;;;;9.57;76.86;101045.09;5033634;28;19960;-54
2021/12/31 08:03:44;;;;;;;;;;;;;;;9.64;76.36;101046.59;5033707;28;20007;-53
2021/12/31 08:06:11;;;;;;;;;;;;;;;9.71;76.32;101041.63;5033408;28;20012;-55
2021/12/31 08:08:37;;;;;;;;;;;;;;;9.77;76.06;101038.88;5033996;28;19921;-54
2021/12/31 08:11:04;;;;;;;;;;;;;;;9.81;75.71;101028.88;5033117;28;19968;-55
2021/12/31 08:13:31;;;;;;;;;;;;;;;9.89;75.49;101031.22;5033344;28;20012;-55
2021/12/31 08:16:00;;;;;;;;;;;;;;;9.94;75.44;101036.81;5033363;28;20012;-54
2021/12/31 08:18:26;;;;;;;;;;;;;;;10.03;75.36;101035.25;5033307;28;19921;-53
2021/12/31 08:20:53;;;;;;;;;;;;;;;10.12;74.93;101030.88;5033658;28;20028;-53
2021/12/31 08:23:20;;;;;;;;;;;;;;;10.27;74.31;101026.53;5035407;28;20373;-54
2021/12/31 08:25:47;;;;;;;;;;;;;;;10.37;74.15;101038.63;5046563;28;20015;-53
2021/12/31 08:28:13;;;;;;;;;;;;;;;10.49;73.94;101024.47;5033181;28;20340;-54
2021/12/31 08:30:40;;;;;;;;;;;;;;;10.73;73.31;101027.69;5033326;28;19928;-54
2021/12/31 08:33:07;;;;;;;;;;;;;;;10.96;72.71;101029.22;5032655;28;20016;-54
2021/12/31 08:35:34;;;;;;;;;;;;;;;11.09;71.73;101030.69;5032837;28;20004;-54
2021/12/31 08:38:01;;;;;;;;;;;;;;;11.18;71.22;101031.84;5032638;28;19921;-54
2021/12/31 08:40:28;;;;;;;;;;;;;;;11.24;70.62;101025.16;5033316;28;20020;-52
2021/12/31 08:42:55;;;;;;;;;;;;;;;11.40;70.21;101023.25;5033478;28;20015;-54
2021/12/31 08:45:30;;;;;;;;;;;;;;;11.55;69.50;101030.84;5032914;28;19921;-53
2021/12/31 08:47:59;;;;;;;;;;;;;;;11.65;69.24;101022.47;5032436;28;19921;-53
2021/12/31 08:50:26;;;;;;;;;;;;;;;11.83;68.47;101032.34;5032472;28;20016;-53
2021/12/31 08:52:53;;;;;;;;;;;;;;;12.00;68.52;101032.06;5032794;28;20028;-54
2021/12/31 08:55:20;;;;;;;;;;;;;;;12.24;67.12;101035.16;5052539;28;20005;-53
2021/12/31 08:57:47;;;;;;;;;;;;;;;12.39;66.22;101042.75;5052461;28;20016;-54
2021/12/31 09:00:14;;;;;;;;;;;;;;;12.49;65.74;101042.75;5044230;28;19975;-53
2021/12/31 09:02:42;;;;;;;;;;;;;;;12.66;65.19;101034.03;5032543;28;20059;-54
2021/12/31 09:05:09;;;;;;;;;;;;;;;12.93;64.58;101045.75;5032605;28;19921;-51
2021/12/31 09:07:36;;;;;;;;;;;;;;;13.33;64.16;101043.09;5032739;28;19924;-51
2021/12/31 09:10:03;;;;;;;;;;;;;;;13.77;62.07;101036.69;5032485;28;19979;-53
2021/12/31 09:12:30;;;;;;;;;;;;;;;14.11;61.03;101053.59;5032802;28;19921;-52
2021/12/31 09:14:56;;;;;;;;;;;;;;;14.44;60.54;101058.38;5032755;28;20318;-52
2021/12/31 09:17:23;;;;;;;;;;;;;;;14.87;60.24;101061.41;5032885;28;20018;-55
2021/12/31 09:19:50;;;;;;;;;;;;;;;15.14;59.15;101065.59;5032300;28;20011;-53
2021/12/31 09:22:17;;;;;;;;;;;;;;;15.34;58.70;101062.53;5032483;28;20340;-54
2021/12/31 09:24:44;;;;;;;;;;;;;;;15.64;56.79;101081.00;5032410;28;20012;-54
2021/12/31 09:27:11;;;;;;;;;;;;;;;15.80;56.08;101072.41;5032479;28;20000;-54
2021/12/31 09:29:38;;;;;;;;;;;;;;;15.99;55.57;101080.84;5042631;28;19921;-53
2021/12/31 09:32:05;;;;;;;;;;;;;;;16.24;54.91;101088.06;5045653;28;19963;-55
2021/12/31 09:34:32;;;;;;;;;;;;;;;16.37;54.41;101092.94;5032881;28;19968;-55
2021/12/31 09:36:58;;;;;;;;;;;;;;;16.35;53.89;101101.69;5032242;28;20478;-55
2021/12/31 09:39:25;;;;;;;;;;;;;;;16.41;54.16;101096.84;5032080;28;19960;-55
2021/12/31 09:41:52;;;;;;;;;;;;;;;16.66;53.88;101101.19;5032039;28;20023;-55
2021/12/31 09:44:21;;;;;;;;;;;;;;;16.85;53.38;101103.16;5032134;28;20384;-54
2021/12/31 09:46:49;;;;;;;;;;;;;;;17.09;52.76;101103.81;5031800;28;19995;-56
2021/12/31 09:49:16;;;;;;;;;;;;;;;17.36;52.35;101103.03;5031836;28;19925;-55
2021/12/31 09:51:43;;;;;;;;;;;;;;;17.56;51.85;101113.06;5032705;28;20020;-54
2021/12/31 09:54:10;;;;;;;;;;;;;;;17.95;50.92;101114.53;5031878;28;20027;-55
2021/12/31 09:56:39;;;;;;;;;;;;;;;18.22;50.13;101125.78;5032038;28;20028;-54
2021/12/31 09:59:06;;;;;;;;;;;;;;;18.51;50.06;101121.69;5033327;28;19928;-55
2021/12/31 10:01:33;;;;;;;;;;;;;;;18.94;50.18;101127.72;5035809;28;19928;-55
2021/12/31 10:04:00;;;;;;;;;;;;;;;19.32;49.98;101126.44;5035535;28;20431;-54
2021/12/31 10:06:27;;;;;;;;;;;;;;;19.45;49.32;101122.63;5035495;28;19921;-54
2021/12/31 10:08:57;;;;;;;;;;;;;;;19.53;47.96;101119.00;5067704;28;19995;-54
2021/12/31 10:11:24;;;;;;;;;;;;;;;19.48;48.34;101121.97;5034386;28;20019;-56
2021/12/31 10:13:51;;;;;;;;;;;;;;;19.36;48.60;101119.78;5035354;28;20023;-55
2021/12/31 10:16:28;;;;;;;;;;;;;;;19.12;47.92;101124.97;5035525;28;20024;-55
2021/12/31 10:19:05;;;;;;;;;;;;;;;18.80;48.48;101117.59;5035349;28;20627;-54
2021/12/31 10:21:38;;;;;;;;;;;;;;;18.59;49.20;101115.25;5035438;28;20016;-54
2021/12/31 10:24:17;;;;;;;;;;;;;;;18.53;49.35;101107.22;5035305;28;20345;-55
2021/12/31 10:26:44;;;;;;;;;;;;;;;18.59;48.93;101105.94;5035920;28;20118;-55
2021/12/31 10:29:11;;;;;;;;;;;;;;;18.56;49.39;101100.94;5035094;28;20019;-55
2021/12/31 10:31:44;;;;;;;;;;;;;;;18.54;49.09;101108.91;5035311;28;19964;-56
2021/12/31 10:34:27;;;;;;;;;;;;;;;18.56;48.83;101107.41;5040334;28;19927;-55
2021/12/31 10:36:55;;;;;;;;;;;;;;;18.57;49.16;101102.63;5046317;28;20027;-55
2021/12/31 10:39:24;;;;;;;;;;;;;;;18.64;48.84;101115.16;5054802;28;20373;-56
2021/12/31 10:42:11;;;;;;;;;;;;;;;18.77;49.30;101109.75;5037678;28;19955;-55
2021/12/31 10:44:49;;;;;;;;;;;;;;;19.17;48.47;101105.00;5034871;28;19921;-56
2021/12/31 10:47:19;;;;;;;;;;;;;;;19.48;48.23;101104.97;5034731;28;19925;-56
2021/12/31 10:50:04;;;;;;;;;;;;;;;19.79;47.35;101104.94;5035256;28;20004;-56
2021/12/31 10:52:39;;;;;;;;;;;;;;;20.03;46.74;101109.31;5034792;28;19968;-56
2021/12/31 10:55:24;;;;;;;;;;;;;;;20.39;47.28;101100.53;5034837;28;19928;-56
2021/12/31 10:57:52;;;;;;;;;;;;;;;21.07;46.55;101106.47;5034813;28;19968;-56
2021/12/31 11:00:20;;;;;;;;;;;;;;;21.36;45.70;101105.72;5035421;28;20012;-57
2021/12/31 11:02:47;;;;;;;;;;;;;;;21.92;46.83;101097.09;5034847;28;19979;-57
2021/12/31 11:05:16;;;;;;;;;;;;;;;22.59;44.04;101087.53;5034467;28;20388;-57
2021/12/31 11:07:43;;;;;;;;;;;;;;;22.43;44.04;101087.38;5034683;28;20003;-57
2021/12/31 11:10:30;;;;;;;;;;;;;;;21.89;43.07;101090.09;5034292;28;20397;-57
2021/12/31 11:12:58;;;;;;;;;;;;;;;21.58;44.52;101087.59;5034708;28;19920;-57
2021/12/31 11:15:25;;;;;;;;;;;;;;;21.51;43.60;101099.50;5040587;28;20347;-57
2021/12/31 11:17:54;;;;;;;;;;;;;;;21.30;44.11;101087.19;5034323;28;19987;-56
2021/12/31 11:20:22;;;;;;;;;;;;;;;21.09;44.54;101084.25;5034585;28;20012;-57
2021/12/31 11:22:49;;;;;;;;;;;;;;;20.91;44.74;101072.09;5034189;28;20332;-57
2021/12/31 11:25:35;;;;;;;;;;;;;;;20.77;44.64;101071.47;5061044;28;19925;-58
2021/12/31 11:28:02;;;;;;;;;;;;;;;20.96;45.11;101060.59;5033988;28;20028;-57
2021/12/31 11:30:34;;;;;;;;;;;;;;;21.34;44.23;101074.00;5034216;28;19924;-58
2021/12/31 11:33:15;;;;;;;;;;;;;;;21.69;44.50;101068.97;5033473;28;19952;-57
2021/12/31 11:35:44;;;;;;;;;;;;;;;22.16;43.25;101054.63;5033743;28;20024;-58
2021/12/31 11:38:14;;;;;;;;;;;;;;;22.40;42.18;101059.59;5039900;28;20007;-57
2021/12/31 11:40:44;;;;;;;;;;;;;;;22.37;41.84;101060.28;5052471;28;19925;-57
2021/12/31 11:43:24;;;;;;;;;;;;;;;22.15;42.36;101052.09;5053826;28;20304;-57
2021/12/31 11:46:12;;;;;;;;;;;;;;;22.08;42.02;101057.50;5051117;28;19967;-58
2021/12/31 11:48:48;;;;;;;;;;;;;;;22.34;42.95;101058.16;5033433;28;20073;-57
2021/12/31 11:51:18;;;;;;;;;;;;;;;23.07;41.68;101054.72;5034324;28;19983;-57
2021/12/31 11:53:57;;;;;;;;;;;;;;;23.43;40.88;101058.81;5033641;28;19981;-56
2021/12/31 11:56:36;;;;;;;;;;;;;;;23.71;39.77;101061.81;5034065;28;19973;-57
2021/12/31 11:59:16;;;;;;;;;;;;;;;23.63;40.34;101051.34;5033424;28;19979;-57
2021/12/31 12:01:46;;;;;;;;;;;;;;;23.61;39.99;101045.97;5033860;28;20309;-57
2021/12/31 12:04:21;;;;;;;;;;;;;;;23.52;40.22;101047.28;5033897;28;19925;-57
2021/12/31 12:07:01;;;;;;;;;;;;;;;23.69;40.30;101043.38;5043643;28;19927;-58
2021/12/31 12:09:54;;;;;;;;;;;;;;;23.77;40.04;101043.28;5052824;28;19921;-55
2021/12/31 12:12:20;;;;;;;;;;;;;;;24.06;39.47;101038.44;5059520;28;19927;-56
2021/12/31 12:14:48;;;;;;;;;;;;;;;24.04;39.48;101038.00;5052937;28;20007;-56
2021/12/31 12:17:16;;;;;;;;;;;;;;;24.26;39.33;101031.72;5032992;28;20423;-56
2021/12/31 12:19:49;;;;;;;;;;;;;;;24.47;39.42;101039.28;5033415;28;20012;-56
2021/12/31 12:22:34;;;;;;;;;;;;;;;24.48;38.71;101021.81;5032799;28;20009;-56
2021/12/31 12:25:02;;;;;;;;;;;;;;;24.46;39.44;101014.81;5032273;28;20008;-57
2021/12/31 12:27:29;;;;;;;;;;;;;;;24.74;39.00;101024.16;5032455;28;20017;-56
2021/12/31 12:29:57;;;;;;;;;;;;;;;24.74;38.51;101021.31;5032828;28;19927;-56
2021/12/31 12:33:16;;;;;;;;;;;;;;;24.72;38.28;101020.03;5031763;28;20449;-56
2021/12/31 12:35:16;;;;;;;;;;;;;;;24.92;38.23;101012.41;5029619;28;19928;-55
2021/12/31 12:37:42;;;;;;;;;;;;;;;25.01;37.76;101007.34;5032458;28;20317;-56
2021/12/31 12:40:10;;;;;;;;;;;;;;;25.17;37.39;101001.66;5032401;28;20020;-56
2021/12/31 12:42:43;;;;;;;;;;;;;;;25.44;37.52;101005.63;5033306;28;20332;-55
2021/12/31 12:45:10;;;;;;;;;;;;;;;25.51;37.10;100991.50;5042549;28;20015;-56
2021/12/31 12:47:36;;;;;;;;;;;;;;;25.42;37.03;100997.41;5043851;28;19921;-56
2021/12/31 12:50:08;;;;;;;;;;;;;;;25.74;37.12;100983.88;5032020;28;20016;-55